sensor_id;sensor_type;location;lat;lon;timestamp;P1;durP1;ratioP1;P2;durP2;ratioP2
48345;SDS011;34159;37.368;127.108;2024-03-08T00:01:12;9.88;;;6.05;;
48345;SDS011;34159;37.368;127.108;2024-03-08T00:03:42;9.35;;;4.85;;
48345;SDS011;34159;37.368;127.108;2024-03-08T00:06:12;9.15;;;5.63;;
48345;SDS011;34159;37.368;127.108;2024-03-08T00:11:14;7.93;;;5.45;;
48345;SDS011;34159;37.368;127.108;2024-03-08T00:13:44;7.40;;;5.60;;
48345;SDS011;34159;37.368;127.108;2024-03-08T00:16:14;6.10;;;5.00;;
48345;SDS011;34159;37.368;127.108;2024-03-08T00:18:47;9.00;;;5.30;;
48345;SDS011;34159;37.368;127.108;2024-03-08T00:21:18;6.30;;;4.55;;
48345;SDS011;34159;37.368;127.108;2024-03-08T00:23:48;6.85;;;4.85;;
48345;SDS011;34159;37.368;127.108;2024-03-08T00:26:17;8.88;;;5.03;;
48345;SDS011;34159;37.368;127.108;2024-03-08T00:28:50;8.65;;;4.63;;
48345;SDS011;34159;37.368;127.108;2024-03-08T00:31:20;6.35;;;4.55;;
48345;SDS011;34159;37.368;127.108;2024-03-08T00:33:50;6.65;;;4.38;;
48345;SDS011;34159;37.368;127.108;2024-03-08T00:36:21;6.60;;;4.72;;
48345;SDS011;34159;37.368;127.108;2024-03-08T00:38:50;5.50;;;4.00;;
48345;SDS011;34159;37.368;127.108;2024-03-08T00:41:20;6.93;;;4.20;;
48345;SDS011;34159;37.368;127.108;2024-03-08T00:43:50;7.60;;;4.25;;
48345;SDS011;34159;37.368;127.108;2024-03-08T00:46:22;7.50;;;4.50;;
48345;SDS011;34159;37.368;127.108;2024-03-08T00:48:51;8.32;;;3.97;;
48345;SDS011;34159;37.368;127.108;2024-03-08T00:51:21;6.43;;;4.20;;
48345;SDS011;34159;37.368;127.108;2024-03-08T00:53:51;7.20;;;4.57;;
48345;SDS011;34159;37.368;127.108;2024-03-08T00:56:23;6.03;;;4.22;;
48345;SDS011;34159;37.368;127.108;2024-03-08T00:58:53;4.47;;;3.65;;
48345;SDS011;34159;37.368;127.108;2024-03-08T01:01:25;5.75;;;4.00;;
48345;SDS011;34159;37.368;127.108;2024-03-08T01:03:55;5.15;;;3.50;;
48345;SDS011;34159;37.368;127.108;2024-03-08T01:06:25;9.52;;;3.10;;
48345;SDS011;34159;37.368;127.108;2024-03-08T01:09:01;6.20;;;3.53;;
48345;SDS011;34159;37.368;127.108;2024-03-08T01:11:31;6.45;;;3.72;;
48345;SDS011;34159;37.368;127.108;2024-03-08T01:14:02;5.38;;;3.65;;
48345;SDS011;34159;37.368;127.108;2024-03-08T01:16:32;5.43;;;3.47;;
48345;SDS011;34159;37.368;127.108;2024-03-08T01:19:02;7.85;;;3.72;;
48345;SDS011;34159;37.368;127.108;2024-03-08T01:21:32;8.95;;;3.42;;
48345;SDS011;34159;37.368;127.108;2024-03-08T01:24:03;4.65;;;2.97;;
48345;SDS011;34159;37.368;127.108;2024-03-08T01:26:37;6.68;;;3.53;;
48345;SDS011;34159;37.368;127.108;2024-03-08T01:29:09;7.57;;;3.30;;
48345;SDS011;34159;37.368;127.108;2024-03-08T01:31:42;7.85;;;3.92;;
48345;SDS011;34159;37.368;127.108;2024-03-08T01:34:14;4.50;;;3.45;;
48345;SDS011;34159;37.368;127.108;2024-03-08T01:36:45;5.47;;;3.25;;
48345;SDS011;34159;37.368;127.108;2024-03-08T01:39:14;8.15;;;3.60;;
48345;SDS011;34159;37.368;127.108;2024-03-08T01:41:45;7.25;;;3.38;;
48345;SDS011;34159;37.368;127.108;2024-03-08T01:44:15;5.05;;;3.22;;
48345;SDS011;34159;37.368;127.108;2024-03-08T01:46:54;7.68;;;3.80;;
48345;SDS011;34159;37.368;127.108;2024-03-08T01:49:24;5.93;;;3.38;;
48345;SDS011;34159;37.368;127.108;2024-03-08T01:51:55;7.90;;;3.20;;
48345;SDS011;34159;37.368;127.108;2024-03-08T01:54:27;7.80;;;3.30;;
48345;SDS011;34159;37.368;127.108;2024-03-08T01:56:58;4.75;;;3.10;;
48345;SDS011;34159;37.368;127.108;2024-03-08T01:59:28;4.75;;;2.80;;
48345;SDS011;34159;37.368;127.108;2024-03-08T02:02:00;6.47;;;3.42;;
48345;SDS011;34159;37.368;127.108;2024-03-08T02:04:37;12.48;;;3.65;;
48345;SDS011;34159;37.368;127.108;2024-03-08T02:07:11;5.40;;;3.30;;
48345;SDS011;34159;37.368;127.108;2024-03-08T02:09:48;7.15;;;2.95;;
48345;SDS011;34159;37.368;127.108;2024-03-08T02:12:24;5.43;;;3.03;;
48345;SDS011;34159;37.368;127.108;2024-03-08T02:14:56;8.30;;;2.97;;
48345;SDS011;34159;37.368;127.108;2024-03-08T02:17:27;7.75;;;3.03;;
48345;SDS011;34159;37.368;127.108;2024-03-08T02:20:03;7.68;;;3.30;;
48345;SDS011;34159;37.368;127.108;2024-03-08T02:22:41;4.47;;;2.92;;
48345;SDS011;34159;37.368;127.108;2024-03-08T02:25:14;6.05;;;3.20;;
48345;SDS011;34159;37.368;127.108;2024-03-08T02:27:47;7.13;;;2.92;;
48345;SDS011;34159;37.368;127.108;2024-03-08T02:30:17;9.32;;;3.40;;
48345;SDS011;34159;37.368;127.108;2024-03-08T02:32:48;11.98;;;2.83;;
48345;SDS011;34159;37.368;127.108;2024-03-08T02:35:18;6.15;;;2.92;;
48345;SDS011;34159;37.368;127.108;2024-03-08T02:37:48;4.93;;;2.70;;
48345;SDS011;34159;37.368;127.108;2024-03-08T02:40:18;6.22;;;2.90;;
48345;SDS011;34159;37.368;127.108;2024-03-08T02:42:47;4.47;;;2.50;;
48345;SDS011;34159;37.368;127.108;2024-03-08T02:45:17;4.93;;;2.92;;
48345;SDS011;34159;37.368;127.108;2024-03-08T02:47:47;7.70;;;3.17;;
48345;SDS011;34159;37.368;127.108;2024-03-08T02:50:20;4.95;;;2.65;;
48345;SDS011;34159;37.368;127.108;2024-03-08T02:52:50;8.73;;;3.15;;
48345;SDS011;34159;37.368;127.108;2024-03-08T02:55:20;4.85;;;2.88;;
48345;SDS011;34159;37.368;127.108;2024-03-08T02:57:50;8.02;;;2.92;;
48345;SDS011;34159;37.368;127.108;2024-03-08T03:00:23;4.57;;;2.53;;
48345;SDS011;34159;37.368;127.108;2024-03-08T03:02:53;6.78;;;2.90;;
48345;SDS011;34159;37.368;127.108;2024-03-08T03:05:23;5.78;;;2.70;;
48345;SDS011;34159;37.368;127.108;2024-03-08T03:07:53;4.82;;;2.80;;
48345;SDS011;34159;37.368;127.108;2024-03-08T03:10:26;5.63;;;2.95;;
48345;SDS011;34159;37.368;127.108;2024-03-08T03:12:56;5.93;;;3.25;;
48345;SDS011;34159;37.368;127.108;2024-03-08T03:15:29;5.88;;;3.10;;
48345;SDS011;34159;37.368;127.108;2024-03-08T03:17:59;4.93;;;2.60;;
48345;SDS011;34159;37.368;127.108;2024-03-08T03:20:29;3.92;;;2.45;;
48345;SDS011;34159;37.368;127.108;2024-03-08T03:23:05;8.10;;;2.80;;
48345;SDS011;34159;37.368;127.108;2024-03-08T03:25:37;3.78;;;2.53;;
48345;SDS011;34159;37.368;127.108;2024-03-08T03:28:09;3.90;;;2.20;;
48345;SDS011;34159;37.368;127.108;2024-03-08T03:30:43;6.55;;;2.58;;
48345;SDS011;34159;37.368;127.108;2024-03-08T03:33:16;5.97;;;2.35;;
48345;SDS011;34159;37.368;127.108;2024-03-08T03:35:46;5.38;;;2.65;;
48345;SDS011;34159;37.368;127.108;2024-03-08T03:38:20;6.20;;;2.47;;
48345;SDS011;34159;37.368;127.108;2024-03-08T03:40:55;6.35;;;2.75;;
48345;SDS011;34159;37.368;127.108;2024-03-08T03:43:25;5.70;;;2.80;;
48345;SDS011;34159;37.368;127.108;2024-03-08T03:45:59;4.85;;;2.67;;
48345;SDS011;34159;37.368;127.108;2024-03-08T03:48:28;4.43;;;2.63;;
48345;SDS011;34159;37.368;127.108;2024-03-08T03:50:58;6.60;;;2.80;;
48345;SDS011;34159;37.368;127.108;2024-03-08T03:53:30;5.68;;;3.30;;
48345;SDS011;34159;37.368;127.108;2024-03-08T03:56:03;5.60;;;2.90;;
48345;SDS011;34159;37.368;127.108;2024-03-08T03:58:35;8.50;;;2.90;;
48345;SDS011;34159;37.368;127.108;2024-03-08T04:01:05;5.25;;;2.67;;
48345;SDS011;34159;37.368;127.108;2024-03-08T04:03:35;5.28;;;3.08;;
48345;SDS011;34159;37.368;127.108;2024-03-08T04:06:05;5.22;;;3.20;;
48345;SDS011;34159;37.368;127.108;2024-03-08T04:08:35;8.15;;;3.35;;
48345;SDS011;34159;37.368;127.108;2024-03-08T04:11:05;6.93;;;3.38;;
48345;SDS011;34159;37.368;127.108;2024-03-08T04:13:34;5.60;;;3.35;;
48345;SDS011;34159;37.368;127.108;2024-03-08T04:16:05;8.07;;;3.30;;
48345;SDS011;34159;37.368;127.108;2024-03-08T04:18:36;4.57;;;3.13;;
48345;SDS011;34159;37.368;127.108;2024-03-08T04:21:06;7.22;;;3.28;;
48345;SDS011;34159;37.368;127.108;2024-03-08T04:23:39;4.97;;;2.55;;
48345;SDS011;34159;37.368;127.108;2024-03-08T04:26:09;4.18;;;2.80;;
48345;SDS011;34159;37.368;127.108;2024-03-08T04:28:40;5.93;;;2.92;;
48345;SDS011;34159;37.368;127.108;2024-03-08T04:31:16;7.00;;;3.10;;
48345;SDS011;34159;37.368;127.108;2024-03-08T04:33:48;5.97;;;3.30;;
48345;SDS011;34159;37.368;127.108;2024-03-08T04:36:18;8.02;;;3.13;;
48345;SDS011;34159;37.368;127.108;2024-03-08T04:38:48;5.07;;;3.17;;
48345;SDS011;34159;37.368;127.108;2024-03-08T04:41:18;6.00;;;3.40;;
48345;SDS011;34159;37.368;127.108;2024-03-08T04:43:48;4.78;;;2.80;;
48345;SDS011;34159;37.368;127.108;2024-03-08T04:46:18;6.88;;;3.10;;
48345;SDS011;34159;37.368;127.108;2024-03-08T04:48:48;7.47;;;4.18;;
48345;SDS011;34159;37.368;127.108;2024-03-08T04:51:18;10.18;;;3.67;;
48345;SDS011;34159;37.368;127.108;2024-03-08T04:53:48;6.68;;;3.40;;
48345;SDS011;34159;37.368;127.108;2024-03-08T04:56:18;6.15;;;3.28;;
48345;SDS011;34159;37.368;127.108;2024-03-08T04:58:47;9.40;;;3.95;;
48345;SDS011;34159;37.368;127.108;2024-03-08T05:01:17;4.28;;;3.33;;
48345;SDS011;34159;37.368;127.108;2024-03-08T05:03:47;6.63;;;3.28;;
48345;SDS011;34159;37.368;127.108;2024-03-08T05:06:18;6.30;;;3.38;;
48345;SDS011;34159;37.368;127.108;2024-03-08T05:08:49;7.15;;;3.13;;
48345;SDS011;34159;37.368;127.108;2024-03-08T05:11:19;5.50;;;3.25;;
48345;SDS011;34159;37.368;127.108;2024-03-08T05:13:49;8.18;;;3.60;;
48345;SDS011;34159;37.368;127.108;2024-03-08T05:16:20;7.38;;;3.17;;
48345;SDS011;34159;37.368;127.108;2024-03-08T05:18:50;7.60;;;3.70;;
48345;SDS011;34159;37.368;127.108;2024-03-08T05:21:20;9.10;;;4.18;;
48345;SDS011;34159;37.368;127.108;2024-03-08T05:23:50;8.98;;;3.25;;
48345;SDS011;34159;37.368;127.108;2024-03-08T05:26:20;7.45;;;3.17;;
48345;SDS011;34159;37.368;127.108;2024-03-08T05:28:50;8.27;;;3.70;;
48345;SDS011;34159;37.368;127.108;2024-03-08T05:31:20;9.18;;;3.17;;
48345;SDS011;34159;37.368;127.108;2024-03-08T05:33:53;4.07;;;2.92;;
48345;SDS011;34159;37.368;127.108;2024-03-08T05:36:23;6.25;;;3.28;;
48345;SDS011;34159;37.368;127.108;2024-03-08T05:38:54;4.95;;;2.90;;
48345;SDS011;34159;37.368;127.108;2024-03-08T05:41:26;4.45;;;3.22;;
48345;SDS011;34159;37.368;127.108;2024-03-08T05:44:02;8.93;;;2.90;;
48345;SDS011;34159;37.368;127.108;2024-03-08T05:46:31;3.65;;;2.78;;
48345;SDS011;34159;37.368;127.108;2024-03-08T05:49:02;5.70;;;3.28;;
48345;SDS011;34159;37.368;127.108;2024-03-08T05:51:36;6.43;;;3.00;;
48345;SDS011;34159;37.368;127.108;2024-03-08T05:54:11;5.15;;;3.20;;
48345;SDS011;34159;37.368;127.108;2024-03-08T05:56:48;10.52;;;3.20;;
48345;SDS011;34159;37.368;127.108;2024-03-08T05:59:21;7.60;;;3.00;;
48345;SDS011;34159;37.368;127.108;2024-03-08T06:01:54;2.90;;;2.60;;
48345;SDS011;34159;37.368;127.108;2024-03-08T06:04:25;8.95;;;2.80;;
48345;SDS011;34159;37.368;127.108;2024-03-08T06:06:55;4.03;;;2.80;;
48345;SDS011;34159;37.368;127.108;2024-03-08T06:09:26;6.40;;;3.05;;
48345;SDS011;34159;37.368;127.108;2024-03-08T06:11:56;3.92;;;3.08;;
48345;SDS011;34159;37.368;127.108;2024-03-08T06:14:26;6.20;;;3.22;;
48345;SDS011;34159;37.368;127.108;2024-03-08T06:16:56;5.68;;;3.10;;
48345;SDS011;34159;37.368;127.108;2024-03-08T06:19:25;9.20;;;3.10;;
48345;SDS011;34159;37.368;127.108;2024-03-08T06:21:55;6.38;;;3.30;;
48345;SDS011;34159;37.368;127.108;2024-03-08T06:24:25;6.43;;;3.83;;
48345;SDS011;34159;37.368;127.108;2024-03-08T06:26:55;4.72;;;3.10;;
48345;SDS011;34159;37.368;127.108;2024-03-08T06:29:25;4.10;;;3.15;;
48345;SDS011;34159;37.368;127.108;2024-03-08T06:31:58;5.90;;;2.97;;
48345;SDS011;34159;37.368;127.108;2024-03-08T06:34:28;6.03;;;3.13;;
48345;SDS011;34159;37.368;127.108;2024-03-08T06:36:58;5.07;;;3.10;;
48345;SDS011;34159;37.368;127.108;2024-03-08T06:39:29;6.90;;;3.10;;
48345;SDS011;34159;37.368;127.108;2024-03-08T06:42:00;7.63;;;3.28;;
48345;SDS011;34159;37.368;127.108;2024-03-08T06:44:29;6.60;;;3.10;;
48345;SDS011;34159;37.368;127.108;2024-03-08T06:46:59;11.02;;;3.88;;
48345;SDS011;34159;37.368;127.108;2024-03-08T06:49:29;7.45;;;3.78;;
48345;SDS011;34159;37.368;127.108;2024-03-08T06:52:00;7.20;;;3.45;;
48345;SDS011;34159;37.368;127.108;2024-03-08T06:54:29;5.13;;;2.97;;
48345;SDS011;34159;37.368;127.108;2024-03-08T06:56:59;10.52;;;3.35;;
48345;SDS011;34159;37.368;127.108;2024-03-08T06:59:29;8.02;;;3.08;;
48345;SDS011;34159;37.368;127.108;2024-03-08T07:01:59;4.55;;;3.53;;
48345;SDS011;34159;37.368;127.108;2024-03-08T07:04:28;5.97;;;3.38;;
48345;SDS011;34159;37.368;127.108;2024-03-08T07:07:03;4.22;;;3.35;;
48345;SDS011;34159;37.368;127.108;2024-03-08T07:09:35;5.35;;;3.65;;
48345;SDS011;34159;37.368;127.108;2024-03-08T07:12:08;6.88;;;3.50;;
48345;SDS011;34159;37.368;127.108;2024-03-08T07:14:38;5.15;;;3.30;;
48345;SDS011;34159;37.368;127.108;2024-03-08T07:17:13;6.35;;;3.72;;
48345;SDS011;34159;37.368;127.108;2024-03-08T07:19:43;4.80;;;3.17;;
48345;SDS011;34159;37.368;127.108;2024-03-08T07:22:13;7.07;;;3.55;;
48345;SDS011;34159;37.368;127.108;2024-03-08T07:24:43;6.75;;;3.70;;
48345;SDS011;34159;37.368;127.108;2024-03-08T07:27:46;7.13;;;3.08;;
48345;SDS011;34159;37.368;127.108;2024-03-08T07:30:23;4.25;;;3.40;;
48345;SDS011;34159;37.368;127.108;2024-03-08T07:33:12;4.68;;;3.67;;
48345;SDS011;34159;37.368;127.108;2024-03-08T07:35:42;6.90;;;3.70;;
48345;SDS011;34159;37.368;127.108;2024-03-08T07:38:13;6.72;;;3.55;;
48345;SDS011;34159;37.368;127.108;2024-03-08T07:40:45;9.73;;;3.80;;
48345;SDS011;34159;37.368;127.108;2024-03-08T07:43:16;7.90;;;3.63;;
48345;SDS011;34159;37.368;127.108;2024-03-08T07:45:46;7.35;;;3.60;;
48345;SDS011;34159;37.368;127.108;2024-03-08T07:48:15;5.75;;;3.83;;
48345;SDS011;34159;37.368;127.108;2024-03-08T07:50:46;6.28;;;3.55;;
48345;SDS011;34159;37.368;127.108;2024-03-08T07:53:18;8.70;;;4.18;;
48345;SDS011;34159;37.368;127.108;2024-03-08T07:55:47;8.35;;;3.42;;
48345;SDS011;34159;37.368;127.108;2024-03-08T07:58:20;7.30;;;3.63;;
48345;SDS011;34159;37.368;127.108;2024-03-08T08:00:50;7.43;;;3.80;;
48345;SDS011;34159;37.368;127.108;2024-03-08T08:03:19;4.75;;;3.70;;
48345;SDS011;34159;37.368;127.108;2024-03-08T08:05:49;7.05;;;3.83;;
48345;SDS011;34159;37.368;127.108;2024-03-08T08:08:19;5.35;;;3.58;;
48345;SDS011;34159;37.368;127.108;2024-03-08T08:10:48;8.05;;;3.80;;
48345;SDS011;34159;37.368;127.108;2024-03-08T08:13:18;5.75;;;3.50;;
48345;SDS011;34159;37.368;127.108;2024-03-08T08:15:48;4.75;;;3.50;;
48345;SDS011;34159;37.368;127.108;2024-03-08T08:18:18;6.13;;;3.30;;
48345;SDS011;34159;37.368;127.108;2024-03-08T08:20:49;4.55;;;3.38;;
48345;SDS011;34159;37.368;127.108;2024-03-08T08:23:20;3.70;;;3.30;;
48345;SDS011;34159;37.368;127.108;2024-03-08T08:25:54;5.78;;;3.47;;
48345;SDS011;34159;37.368;127.108;2024-03-08T08:28:24;5.78;;;3.40;;
48345;SDS011;34159;37.368;127.108;2024-03-08T08:30:54;4.85;;;3.40;;
48345;SDS011;34159;37.368;127.108;2024-03-08T08:33:24;5.25;;;3.38;;
48345;SDS011;34159;37.368;127.108;2024-03-08T08:35:56;5.53;;;3.45;;
48345;SDS011;34159;37.368;127.108;2024-03-08T08:38:26;5.28;;;3.25;;
48345;SDS011;34159;37.368;127.108;2024-03-08T08:40:56;6.00;;;3.20;;
48345;SDS011;34159;37.368;127.108;2024-03-08T08:43:26;6.57;;;4.32;;
48345;SDS011;34159;37.368;127.108;2024-03-08T08:45:57;5.15;;;3.17;;
48345;SDS011;34159;37.368;127.108;2024-03-08T08:48:26;6.22;;;3.60;;
48345;SDS011;34159;37.368;127.108;2024-03-08T08:50:57;4.60;;;3.60;;
48345;SDS011;34159;37.368;127.108;2024-03-08T08:53:27;4.72;;;2.95;;
48345;SDS011;34159;37.368;127.108;2024-03-08T08:55:57;5.60;;;3.78;;
48345;SDS011;34159;37.368;127.108;2024-03-08T08:58:30;5.28;;;3.28;;
48345;SDS011;34159;37.368;127.108;2024-03-08T09:00:59;4.25;;;3.13;;
48345;SDS011;34159;37.368;127.108;2024-03-08T09:03:33;6.38;;;3.92;;
48345;SDS011;34159;37.368;127.108;2024-03-08T09:06:03;7.47;;;3.75;;
48345;SDS011;34159;37.368;127.108;2024-03-08T09:08:33;3.75;;;2.92;;
48345;SDS011;34159;37.368;127.108;2024-03-08T09:11:03;4.50;;;3.63;;
48345;SDS011;34159;37.368;127.108;2024-03-08T09:13:33;3.97;;;2.83;;
48345;SDS011;34159;37.368;127.108;2024-03-08T09:16:03;3.63;;;2.80;;
48345;SDS011;34159;37.368;127.108;2024-03-08T09:18:36;5.50;;;3.03;;
48345;SDS011;34159;37.368;127.108;2024-03-08T09:21:09;8.45;;;3.53;;
48345;SDS011;34159;37.368;127.108;2024-03-08T09:23:38;4.80;;;3.05;;
48345;SDS011;34159;37.368;127.108;2024-03-08T09:26:09;4.10;;;3.00;;
48345;SDS011;34159;37.368;127.108;2024-03-08T09:28:51;5.03;;;3.15;;
48345;SDS011;34159;37.368;127.108;2024-03-08T09:31:23;5.40;;;3.28;;
48345;SDS011;34159;37.368;127.108;2024-03-08T09:33:52;5.05;;;3.30;;
48345;SDS011;34159;37.368;127.108;2024-03-08T09:36:22;4.00;;;3.20;;
48345;SDS011;34159;37.368;127.108;2024-03-08T09:38:53;6.80;;;3.42;;
48345;SDS011;34159;37.368;127.108;2024-03-08T09:41:23;5.75;;;3.15;;
48345;SDS011;34159;37.368;127.108;2024-03-08T09:43:52;4.90;;;3.17;;
48345;SDS011;34159;37.368;127.108;2024-03-08T09:46:24;5.57;;;3.05;;
48345;SDS011;34159;37.368;127.108;2024-03-08T09:48:55;4.68;;;3.47;;
48345;SDS011;34159;37.368;127.108;2024-03-08T09:51:27;4.38;;;2.60;;
48345;SDS011;34159;37.368;127.108;2024-03-08T09:53:57;4.95;;;3.10;;
48345;SDS011;34159;37.368;127.108;2024-03-08T09:56:37;4.38;;;2.80;;
48345;SDS011;34159;37.368;127.108;2024-03-08T09:59:13;4.60;;;3.13;;
48345;SDS011;34159;37.368;127.108;2024-03-08T10:01:48;4.10;;;2.85;;
48345;SDS011;34159;37.368;127.108;2024-03-08T10:04:20;4.20;;;2.92;;
48345;SDS011;34159;37.368;127.108;2024-03-08T10:06:50;4.43;;;3.00;;
48345;SDS011;34159;37.368;127.108;2024-03-08T10:09:20;5.18;;;3.17;;
48345;SDS011;34159;37.368;127.108;2024-03-08T10:11:56;4.40;;;3.08;;
48345;SDS011;34159;37.368;127.108;2024-03-08T10:14:27;3.90;;;2.97;;
48345;SDS011;34159;37.368;127.108;2024-03-08T10:17:00;6.20;;;3.25;;
48345;SDS011;34159;37.368;127.108;2024-03-08T10:19:29;4.55;;;3.17;;
48345;SDS011;34159;37.368;127.108;2024-03-08T10:22:00;6.72;;;3.35;;
48345;SDS011;34159;37.368;127.108;2024-03-08T10:24:30;4.40;;;3.08;;
48345;SDS011;34159;37.368;127.108;2024-03-08T10:27:06;4.47;;;3.50;;
48345;SDS011;34159;37.368;127.108;2024-03-08T10:29:36;3.97;;;3.20;;
48345;SDS011;34159;37.368;127.108;2024-03-08T10:32:07;4.82;;;3.30;;
48345;SDS011;34159;37.368;127.108;2024-03-08T10:34:36;5.78;;;3.10;;
48345;SDS011;34159;37.368;127.108;2024-03-08T10:37:06;5.68;;;3.63;;
48345;SDS011;34159;37.368;127.108;2024-03-08T10:39:41;5.40;;;3.17;;
48345;SDS011;34159;37.368;127.108;2024-03-08T10:42:18;5.93;;;3.58;;
48345;SDS011;34159;37.368;127.108;2024-03-08T10:45:03;6.95;;;3.58;;
48345;SDS011;34159;37.368;127.108;2024-03-08T10:47:41;4.15;;;3.08;;
48345;SDS011;34159;37.368;127.108;2024-03-08T10:50:19;6.53;;;3.30;;
48345;SDS011;34159;37.368;127.108;2024-03-08T10:52:50;6.57;;;3.22;;
48345;SDS011;34159;37.368;127.108;2024-03-08T10:55:21;5.22;;;3.50;;
48345;SDS011;34159;37.368;127.108;2024-03-08T10:57:56;4.53;;;3.47;;
48345;SDS011;34159;37.368;127.108;2024-03-08T11:00:26;5.75;;;3.53;;
48345;SDS011;34159;37.368;127.108;2024-03-08T11:02:56;4.63;;;3.47;;
48345;SDS011;34159;37.368;127.108;2024-03-08T11:05:32;5.23;;;3.60;;
48345;SDS011;34159;37.368;127.108;2024-03-08T11:10:50;6.93;;;4.35;;
48345;SDS011;34159;37.368;127.108;2024-03-08T11:13:44;4.45;;;3.50;;
48345;SDS011;34159;37.368;127.108;2024-03-08T11:16:36;5.40;;;3.40;;
48345;SDS011;34159;37.368;127.108;2024-03-08T11:19:07;4.70;;;3.80;;
48345;SDS011;34159;37.368;127.108;2024-03-08T11:22:00;6.40;;;4.05;;
48345;SDS011;34159;37.368;127.108;2024-03-08T11:24:38;4.15;;;3.65;;
48345;SDS011;34159;37.368;127.108;2024-03-08T11:27:08;5.88;;;4.00;;
48345;SDS011;34159;37.368;127.108;2024-03-08T11:29:38;6.47;;;3.60;;
48345;SDS011;34159;37.368;127.108;2024-03-08T11:32:14;4.53;;;3.50;;
48345;SDS011;34159;37.368;127.108;2024-03-08T11:34:50;5.40;;;3.50;;
48345;SDS011;34159;37.368;127.108;2024-03-08T11:37:20;5.80;;;3.92;;
48345;SDS011;34159;37.368;127.108;2024-03-08T11:39:54;4.65;;;3.92;;
48345;SDS011;34159;37.368;127.108;2024-03-08T11:42:35;6.22;;;4.28;;
48345;SDS011;34159;37.368;127.108;2024-03-08T11:45:08;5.88;;;3.78;;
48345;SDS011;34159;37.368;127.108;2024-03-08T11:47:42;6.25;;;4.30;;
48345;SDS011;34159;37.368;127.108;2024-03-08T11:50:22;5.72;;;4.10;;
48345;SDS011;34159;37.368;127.108;2024-03-08T11:52:52;4.97;;;3.70;;
48345;SDS011;34159;37.368;127.108;2024-03-08T11:55:22;5.22;;;3.60;;
48345;SDS011;34159;37.368;127.108;2024-03-08T11:57:59;5.82;;;4.20;;
48345;SDS011;34159;37.368;127.108;2024-03-08T12:00:30;7.05;;;4.20;;
48345;SDS011;34159;37.368;127.108;2024-03-08T12:03:09;5.72;;;4.38;;
48345;SDS011;34159;37.368;127.108;2024-03-08T12:05:39;7.22;;;3.97;;
48345;SDS011;34159;37.368;127.108;2024-03-08T12:08:08;5.47;;;4.20;;
48345;SDS011;34159;37.368;127.108;2024-03-08T12:10:41;8.07;;;4.35;;
48345;SDS011;34159;37.368;127.108;2024-03-08T12:13:11;5.85;;;3.95;;
48345;SDS011;34159;37.368;127.108;2024-03-08T12:15:43;5.88;;;4.10;;
48345;SDS011;34159;37.368;127.108;2024-03-08T12:18:12;4.43;;;3.90;;
48345;SDS011;34159;37.368;127.108;2024-03-08T12:20:42;10.07;;;4.63;;
48345;SDS011;34159;37.368;127.108;2024-03-08T12:23:18;4.45;;;3.80;;
48345;SDS011;34159;37.368;127.108;2024-03-08T12:25:47;5.78;;;4.22;;
48345;SDS011;34159;37.368;127.108;2024-03-08T12:28:19;6.32;;;4.25;;
48345;SDS011;34159;37.368;127.108;2024-03-08T12:30:50;5.40;;;4.13;;
48345;SDS011;34159;37.368;127.108;2024-03-08T12:33:27;6.03;;;3.78;;
48345;SDS011;34159;37.368;127.108;2024-03-08T12:35:56;6.28;;;4.40;;
48345;SDS011;34159;37.368;127.108;2024-03-08T12:38:29;5.85;;;4.55;;
48345;SDS011;34159;37.368;127.108;2024-03-08T12:41:03;4.90;;;4.30;;
48345;SDS011;34159;37.368;127.108;2024-03-08T12:43:33;5.32;;;4.28;;
48345;SDS011;34159;37.368;127.108;2024-03-08T12:46:02;5.18;;;4.10;;
48345;SDS011;34159;37.368;127.108;2024-03-08T12:48:34;5.57;;;4.25;;
48345;SDS011;34159;37.368;127.108;2024-03-08T12:51:08;6.15;;;4.30;;
48345;SDS011;34159;37.368;127.108;2024-03-08T12:53:38;8.65;;;4.30;;
48345;SDS011;34159;37.368;127.108;2024-03-08T12:56:28;4.65;;;3.80;;
48345;SDS011;34159;37.368;127.108;2024-03-08T12:59:01;5.90;;;4.38;;
48345;SDS011;34159;37.368;127.108;2024-03-08T13:01:31;5.55;;;4.13;;
48345;SDS011;34159;37.368;127.108;2024-03-08T13:04:01;7.43;;;4.72;;
48345;SDS011;34159;37.368;127.108;2024-03-08T13:06:31;5.68;;;4.20;;
48345;SDS011;34159;37.368;127.108;2024-03-08T13:09:01;5.95;;;4.40;;
48345;SDS011;34159;37.368;127.108;2024-03-08T13:11:34;5.45;;;3.92;;
48345;SDS011;34159;37.368;127.108;2024-03-08T13:14:04;7.05;;;4.35;;
48345;SDS011;34159;37.368;127.108;2024-03-08T13:16:34;8.25;;;4.38;;
48345;SDS011;34159;37.368;127.108;2024-03-08T13:19:04;6.07;;;4.20;;
48345;SDS011;34159;37.368;127.108;2024-03-08T13:21:34;9.57;;;4.00;;
48345;SDS011;34159;37.368;127.108;2024-03-08T13:24:04;5.50;;;4.03;;
48345;SDS011;34159;37.368;127.108;2024-03-08T13:26:34;6.15;;;4.18;;
48345;SDS011;34159;37.368;127.108;2024-03-08T13:29:04;6.00;;;3.92;;
48345;SDS011;34159;37.368;127.108;2024-03-08T13:31:35;6.78;;;4.30;;
48345;SDS011;34159;37.368;127.108;2024-03-08T13:34:04;9.35;;;4.10;;
48345;SDS011;34159;37.368;127.108;2024-03-08T13:36:34;5.32;;;3.80;;
48345;SDS011;34159;37.368;127.108;2024-03-08T13:39:10;7.03;;;3.88;;
48345;SDS011;34159;37.368;127.108;2024-03-08T13:41:49;7.38;;;4.75;;
48345;SDS011;34159;37.368;127.108;2024-03-08T13:44:18;5.97;;;4.30;;
48345;SDS011;34159;37.368;127.108;2024-03-08T13:46:48;5.82;;;4.13;;
48345;SDS011;34159;37.368;127.108;2024-03-08T13:49:20;7.35;;;4.45;;
48345;SDS011;34159;37.368;127.108;2024-03-08T13:51:50;6.97;;;4.85;;
48345;SDS011;34159;37.368;127.108;2024-03-08T13:56:52;7.13;;;4.15;;
48345;SDS011;34159;37.368;127.108;2024-03-08T13:59:22;7.03;;;4.78;;
48345;SDS011;34159;37.368;127.108;2024-03-08T14:01:53;8.35;;;4.63;;
48345;SDS011;34159;37.368;127.108;2024-03-08T14:04:23;6.40;;;4.45;;
48345;SDS011;34159;37.368;127.108;2024-03-08T14:06:53;8.27;;;4.28;;
48345;SDS011;34159;37.368;127.108;2024-03-08T14:09:29;6.68;;;4.28;;
48345;SDS011;34159;37.368;127.108;2024-03-08T14:11:59;5.85;;;4.03;;
48345;SDS011;34159;37.368;127.108;2024-03-08T14:14:31;7.13;;;4.53;;
48345;SDS011;34159;37.368;127.108;2024-03-08T14:17:03;6.70;;;3.90;;
48345;SDS011;34159;37.368;127.108;2024-03-08T14:19:35;6.80;;;4.82;;
48345;SDS011;34159;37.368;127.108;2024-03-08T14:22:04;5.05;;;4.18;;
48345;SDS011;34159;37.368;127.108;2024-03-08T14:24:35;7.72;;;5.03;;
48345;SDS011;34159;37.368;127.108;2024-03-08T14:27:05;6.30;;;4.63;;
48345;SDS011;34159;37.368;127.108;2024-03-08T14:29:36;6.43;;;4.43;;
48345;SDS011;34159;37.368;127.108;2024-03-08T14:32:07;7.57;;;4.43;;
48345;SDS011;34159;37.368;127.108;2024-03-08T14:34:38;6.07;;;4.43;;
48345;SDS011;34159;37.368;127.108;2024-03-08T14:37:08;7.28;;;4.75;;
48345;SDS011;34159;37.368;127.108;2024-03-08T14:39:39;6.60;;;4.65;;
48345;SDS011;34159;37.368;127.108;2024-03-08T14:42:09;6.15;;;4.30;;
48345;SDS011;34159;37.368;127.108;2024-03-08T14:44:43;5.93;;;4.40;;
48345;SDS011;34159;37.368;127.108;2024-03-08T14:47:17;5.32;;;4.55;;
48345;SDS011;34159;37.368;127.108;2024-03-08T14:49:47;6.38;;;4.32;;
48345;SDS011;34159;37.368;127.108;2024-03-08T14:52:17;7.03;;;4.40;;
48345;SDS011;34159;37.368;127.108;2024-03-08T14:54:56;5.57;;;4.22;;